Time;durP1;ratioP1;P1;durP2;ratioP2;P2;SDS_P1;SDS_P2;PMS_P1;PMS_P2;Temp;Humidity;BMP_temperature;BMP_pressure;BME280_temperature;BME280_humidity;BME280_pressure;Samples;Min_cycle;Max_cycle;Signal;HPM_P1;HPM_P2
2024/01/14 00:00:08;;;;;;;62.50;22.33;;;;;;;0.86;100.00;101552.81;4953741;28;20047;-90
2024/01/14 00:02:34;;;;;;;62.83;22.77;;;;;;;0.86;100.00;101550.25;4954992;28;20035;-89
2024/01/14 00:04:59;;;;;;;60.60;21.23;;;;;;;0.86;100.00;101545.13;4937648;28;20384;-89
2024/01/14 00:07:25;;;;;;;69.23;24.23;;;;;;;0.86;100.00;101534.88;4953762;28;20027;-90
2024/01/14 00:09:50;;;;;;;69.97;24.57;;;;;;;0.86;100.00;101545.13;4951977;28;20028;-90
2024/01/14 00:12:15;;;;;;;66.03;23.70;;;;;;;0.86;100.00;101537.44;4953841;28;20058;-90
2024/01/14 00:14:41;;;;;;;65.83;22.40;;;;;;;0.86;100.00;101547.69;4953543;28;20031;-89
2024/01/14 00:17:07;;;;;;;65.80;22.70;;;;;;;0.84;100.00;101537.41;4954236;28;20421;-90
2024/01/14 00:19:32;;;;;;;63.50;22.93;;;;;;;0.84;100.00;101536.56;4953778;28;20035;-91
2024/01/14 00:21:58;;;;;;;66.17;23.53;;;;;;;0.84;100.00;101532.28;4954640;28;20152;-89
2024/01/14 00:24:23;;;;;;;62.90;24.00;;;;;;;0.86;100.00;101528.06;4946966;28;20023;-90
2024/01/14 00:26:48;;;;;;;70.93;24.17;;;;;;;0.88;100.00;101531.53;4951991;28;20031;-90
2024/01/14 00:29:14;;;;;;;64.53;23.70;;;;;;;0.87;100.00;101526.34;4954661;28;20023;-90
2024/01/14 00:31:39;;;;;;;64.17;22.10;;;;;;;0.87;100.00;101523.78;4952254;28;20031;-89
2024/01/14 00:34:05;;;;;;;63.20;22.47;;;;;;;0.86;100.00;101519.50;4955985;28;20023;-90
2024/01/14 00:36:30;;;;;;;59.77;21.37;;;;;;;0.88;100.00;101522.97;4936706;29;20042;-89
2024/01/14 00:38:55;;;;;;;64.87;22.43;;;;;;;0.89;100.00;101509.34;4936789;28;20027;-90
2024/01/14 00:41:21;;;;;;;61.60;21.47;;;;;;;0.90;100.00;101511.97;4949769;28;20372;-89
2024/01/14 00:43:46;;;;;;;59.23;22.43;;;;;;;0.89;100.00;101499.09;4960095;28;20071;-90
2024/01/14 00:46:12;;;;;;;64.77;22.47;;;;;;;0.90;100.00;101506.84;4970023;28;20053;-89
2024/01/14 00:48:37;;;;;;;62.47;22.87;;;;;;;0.90;100.00;101500.81;4970142;28;20041;-89
2024/01/14 00:51:03;;;;;;;59.10;21.30;;;;;;;0.88;100.00;101505.91;4970414;28;20114;-90
2024/01/14 00:53:28;;;;;;;61.17;21.07;;;;;;;0.89;100.00;101506.78;4968897;28;20759;-90
2024/01/14 00:55:53;;;;;;;61.63;21.97;;;;;;;0.90;100.00;101500.81;4967527;28;20954;-89
2024/01/14 00:58:19;;;;;;;56.53;20.47;;;;;;;0.88;100.00;101498.25;4970060;28;20098;-91
2024/01/14 01:00:44;;;;;;;61.47;22.07;;;;;;;0.89;100.00;101497.41;4969636;28;20026;-89
2024/01/14 01:03:09;;;;;;;57.70;19.77;;;;;;;0.88;100.00;101482.88;4970196;28;20027;-90
2024/01/14 01:05:34;;;;;;;54.53;20.07;;;;;;;0.90;100.00;101488.91;4970200;28;20030;-89
2024/01/14 01:08:01;;;;;;;51.10;18.80;;;;;;;0.90;100.00;101480.31;4968437;28;20031;-89
2024/01/14 01:10:26;;;;;;;61.77;20.80;;;;;;;0.90;100.00;101485.44;4967627;28;20519;-89
2024/01/14 01:12:51;;;;;;;55.73;19.83;;;;;;;0.93;100.00;101485.53;4968957;28;20031;-89
2024/01/14 01:15:17;;;;;;;60.20;20.17;;;;;;;0.90;100.00;101478.66;4953611;28;20665;-90
2024/01/14 01:17:42;;;;;;;51.87;19.33;;;;;;;0.93;100.00;101482.97;4953924;28;20630;-90
2024/01/14 01:20:08;;;;;;;58.93;21.43;;;;;;;0.95;100.00;101481.31;4953801;28;20497;-89
2024/01/14 01:22:33;;;;;;;60.60;19.63;;;;;;;0.94;100.00;101461.66;4968671;28;20051;-89
2024/01/14 01:24:59;;;;;;;56.03;20.87;;;;;;;0.96;100.00;101474.47;4968250;28;20086;-89
2024/01/14 01:27:25;;;;;;;55.47;19.90;;;;;;;0.97;100.00;101478.78;4967815;28;20377;-91
2024/01/14 01:29:51;;;;;;;55.57;19.93;;;;;;;0.97;100.00;101476.22;4954640;28;20555;-89
2024/01/14 01:32:16;;;;;;;51.27;18.90;;;;;;;0.96;100.00;101475.38;4966697;28;20026;-90
2024/01/14 01:34:43;;;;;;;53.63;18.93;;;;;;;0.99;100.00;101467.75;4969096;28;20484;-89
2024/01/14 01:37:08;;;;;;;53.87;19.33;;;;;;;0.99;100.00;101454.06;4969409;28;20093;-89
2024/01/14 01:39:33;;;;;;;57.80;20.67;;;;;;;0.98;100.00;101453.22;4969436;28;20034;-89
2024/01/14 01:41:59;;;;;;;60.13;21.03;;;;;;;0.99;100.00;101454.94;4967987;28;20484;-89
2024/01/14 01:44:24;;;;;;;60.43;21.07;;;;;;;0.99;100.00;101449.81;4968531;28;20407;-89
2024/01/14 01:46:50;;;;;;;57.07;20.80;;;;;;;0.98;100.00;101453.22;4956510;28;20038;-90
2024/01/14 01:49:16;;;;;;;54.07;20.50;;;;;;;0.97;100.00;101443.78;4967938;28;20019;-91
2024/01/14 01:51:47;;;;;;;55.60;19.77;;;;;;;0.98;100.00;101432.72;4954085;28;20034;-90
2024/01/14 01:54:14;;;;;;;56.47;19.37;;;;;;;1.00;100.00;101419.94;4967882;28;20101;-90
2024/01/14 01:56:40;;;;;;;57.03;20.97;;;;;;;0.99;100.00;101437.00;4967239;28;20033;-89
2024/01/14 01:59:06;;;;;;;54.30;20.13;;;;;;;1.00;100.00;101433.63;4967273;28;20042;-88
2024/01/14 02:01:32;;;;;;;54.20;21.40;;;;;;;1.00;100.00;101440.44;4968538;28;21075;-90
2024/01/14 02:03:59;;;;;;;53.90;21.00;;;;;;;0.99;100.00;101438.69;4966666;28;20027;-90
2024/01/14 02:06:27;;;;;;;49.73;19.63;;;;;;;1.00;100.00;101440.44;4969028;28;20110;-90
2024/01/14 02:08:52;;;;;;;53.23;19.80;;;;;;;0.98;100.00;101432.72;4968213;28;20118;-90
2024/01/14 02:11:18;;;;;;;53.17;19.97;;;;;;;0.99;100.00;101423.31;4968283;28;20030;-90
2024/01/14 02:13:43;;;;;;;52.23;19.57;;;;;;;0.98;100.00;101422.47;4968133;28;20484;-90
2024/01/14 02:16:08;;;;;;;52.07;19.30;;;;;;;0.97;100.00;101415.59;4968609;28;20031;-90
2024/01/14 02:18:34;;;;;;;52.10;20.70;;;;;;;0.97;100.00;101414.72;4967812;28;20037;-90
2024/01/14 02:20:59;;;;;;;50.23;18.93;;;;;;;0.95;100.00;101414.72;4968105;28;20094;-89
2024/01/14 02:23:27;;;;;;;51.73;19.27;;;;;;;0.96;100.00;101419.00;4967682;28;20082;-90
2024/01/14 02:25:53;;;;;;;55.57;20.70;;;;;;;0.95;100.00;101424.06;4967177;28;20743;-90
2024/01/14 02:28:20;;;;;;;51.63;19.20;;;;;;;0.96;100.00;101418.13;4968212;28;20035;-90
2024/01/14 02:30:46;;;;;;;55.03;19.90;;;;;;;0.95;100.00;101412.16;4967901;28;20030;-89
2024/01/14 02:33:12;;;;;;;53.90;19.60;;;;;;;0.92;100.00;101401.81;4966300;28;20050;-90
2024/01/14 02:35:39;;;;;;;47.57;17.57;;;;;;;0.90;100.00;101409.47;4968126;28;20031;-91
2024/01/14 02:38:05;;;;;;;49.70;18.60;;;;;;;0.90;100.00;101408.59;4954762;28;20019;-89
2024/01/14 02:40:31;;;;;;;54.03;20.03;;;;;;;0.89;100.00;101405.19;4968903;28;20204;-89
2024/01/14 02:42:56;;;;;;;46.63;17.57;;;;;;;0.91;100.00;101412.91;4956773;28;20065;-89
2024/01/14 02:45:22;;;;;;;51.60;18.67;;;;;;;0.90;100.00;101404.34;4966125;28;20070;-89
2024/01/14 02:47:47;;;;;;;54.27;20.33;;;;;;;0.89;100.00;101396.63;4970045;28;20038;-89
2024/01/14 02:50:12;;;;;;;57.60;19.57;;;;;;;0.89;100.00;101397.50;4971289;28;20054;-89
2024/01/14 02:52:38;;;;;;;50.53;18.50;;;;;;;0.89;100.00;101391.50;4958754;28;20061;-89
2024/01/14 02:55:03;;;;;;;50.57;19.20;;;;;;;0.92;100.00;101381.31;4971054;28;20029;-90
2024/01/14 02:57:29;;;;;;;50.90;19.30;;;;;;;0.91;100.00;101379.59;4971508;28;20027;-89
2024/01/14 02:59:54;;;;;;;50.10;18.27;;;;;;;0.91;100.00;101374.47;4971950;28;20026;-89
2024/01/14 03:02:19;;;;;;;49.73;18.07;;;;;;;0.92;100.00;101371.06;4970979;28;20171;-89
2024/01/14 03:04:44;;;;;;;52.07;18.80;;;;;;;0.93;100.00;101377.09;4956474;28;20110;-89
2024/01/14 03:07:10;;;;;;;54.03;19.10;;;;;;;0.93;100.00;101372.81;4956709;28;20067;-90
2024/01/14 03:09:35;;;;;;;58.63;20.23;;;;;;;0.92;100.00;101368.53;4972235;28;20042;-91
2024/01/14 03:12:01;;;;;;;49.30;19.43;;;;;;;0.93;100.00;101372.81;4970993;28;20027;-89
2024/01/14 03:14:26;;;;;;;55.70;20.47;;;;;;;0.92;100.00;101365.09;4970728;28;20492;-90
2024/01/14 03:16:51;;;;;;;56.43;20.60;;;;;;;0.91;100.00;101361.66;4971947;28;20476;-90
2024/01/14 03:19:16;;;;;;;56.60;21.10;;;;;;;0.92;100.00;101358.28;4955041;28;20756;-90
2024/01/14 03:21:42;;;;;;;57.33;21.23;;;;;;;0.92;100.00;101371.06;4971722;28;20045;-89
2024/01/14 03:24:07;;;;;;;56.87;21.00;;;;;;;0.91;100.00;101361.66;4972703;28;20101;-90
2024/01/14 03:26:33;;;;;;;56.07;20.30;;;;;;;0.89;100.00;101358.19;4970982;28;20037;-90
2024/01/14 03:28:58;;;;;;;51.60;18.83;;;;;;;0.90;100.00;101359.94;4970034;28;20045;-90
2024/01/14 03:31:24;;;;;;;49.80;18.90;;;;;;;0.90;100.00;101352.25;4970853;28;20437;-89
2024/01/14 03:33:49;;;;;;;48.80;19.27;;;;;;;0.88;100.00;101364.16;4970604;28;20440;-89
2024/01/14 03:36:15;;;;;;;52.30;19.37;;;;;;;0.87;100.00;101352.16;4969241;28;20102;-90
2024/01/14 03:38:40;;;;;;;53.87;20.03;;;;;;;0.88;100.00;101346.22;4970693;28;20022;-90
2024/01/14 03:41:06;;;;;;;47.13;18.30;;;;;;;0.89;100.00;101346.28;4971227;28;20086;-91
2024/01/14 03:43:31;;;;;;;51.23;19.07;;;;;;;0.92;100.00;101345.47;4972102;28;20035;-90
2024/01/14 03:45:56;;;;;;;47.77;18.27;;;;;;;0.91;100.00;101343.72;4974209;28;20038;-91
2024/01/14 03:48:22;;;;;;;48.03;19.03;;;;;;;0.90;100.00;101342.00;4957217;28;20383;-90
2024/01/14 03:50:47;;;;;;;44.50;17.70;;;;;;;0.89;100.00;101345.38;4967743;28;20391;-89
2024/01/14 03:53:13;;;;;;;48.60;18.30;;;;;;;0.88;100.00;101341.09;4971535;28;20480;-89
2024/01/14 03:55:38;;;;;;;47.63;17.97;;;;;;;0.89;100.00;101335.13;4970008;28;20531;-91
2024/01/14 03:58:04;;;;;;;50.07;18.50;;;;;;;0.89;100.00;101328.34;4966664;28;20031;-90
2024/01/14 04:00:30;;;;;;;49.20;18.97;;;;;;;0.89;100.00;101335.13;4966222;28;20019;-90
2024/01/14 04:02:56;;;;;;;50.83;18.53;;;;;;;0.89;100.00;101340.25;4944829;28;20038;-90
2024/01/14 04:05:21;;;;;;;45.73;18.37;;;;;;;0.88;100.00;101333.41;4958174;28;20073;-90
2024/01/14 04:07:49;;;;;;;49.07;19.37;;;;;;;0.89;100.00;101330.91;4970192;28;20391;-89
2024/01/14 04:10:15;;;;;;;54.33;19.50;;;;;;;0.87;100.00;101332.56;4971026;28;20031;-90
2024/01/14 04:12:41;;;;;;;52.97;19.10;;;;;;;0.87;100.00;101335.13;4970872;28;20057;-88
2024/01/14 04:15:06;;;;;;;53.10;19.87;;;;;;;0.86;100.00;101319.69;4972740;28;20050;-89
2024/01/14 04:17:32;;;;;;;51.77;20.23;;;;;;;0.85;100.00;101318.00;4974061;28;20027;-90
2024/01/14 04:19:58;;;;;;;47.70;18.53;;;;;;;0.83;100.00;101319.66;4969577;28;20406;-91
2024/01/14 04:22:23;;;;;;;46.60;18.20;;;;;;;0.85;100.00;101323.13;4959003;28;20026;-90
2024/01/14 04:24:49;;;;;;;48.77;19.03;;;;;;;0.85;100.00;101315.44;4972531;28;20022;-90
2024/01/14 04:27:14;;;;;;;44.80;17.67;;;;;;;0.83;100.00;101323.06;4972139;28;20399;-90
2024/01/14 04:29:40;;;;;;;44.17;16.93;;;;;;;0.82;100.00;101316.22;4974240;28;20031;-89
2024/01/14 04:32:06;;;;;;;43.83;18.50;;;;;;;0.81;100.00;101311.06;4973715;28;20038;-89
2024/01/14 04:34:31;;;;;;;45.87;18.07;;;;;;;0.81;100.00;101316.19;4972687;28;20023;-89
2024/01/14 04:36:56;;;;;;;42.63;16.93;;;;;;;0.79;100.00;101312.72;4953421;28;20105;-89
2024/01/14 04:39:21;;;;;;;45.80;17.97;;;;;;;0.78;100.00;101316.13;4973196;28;20102;-90
2024/01/14 04:41:47;;;;;;;45.03;17.30;;;;;;;0.78;100.00;101316.97;4955279;28;20554;-90
2024/01/14 04:44:12;;;;;;;45.63;17.40;;;;;;;0.77;100.00;101302.44;4965464;28;20552;-91
2024/01/14 04:46:37;;;;;;;44.83;17.20;;;;;;;0.79;100.00;101297.38;4935119;28;20034;-89
2024/01/14 04:49:03;;;;;;;45.73;17.17;;;;;;;0.77;100.00;101305.00;4937326;28;20020;-90
2024/01/14 04:51:28;;;;;;;45.50;17.87;;;;;;;0.78;100.00;101295.63;4953645;28;20448;-89
2024/01/14 04:53:53;;;;;;;44.50;16.67;;;;;;;0.79;100.00;101299.91;4952129;28;20027;-88
2024/01/14 04:56:19;;;;;;;46.23;17.97;;;;;;;0.79;100.00;101298.22;4952655;28;20476;-89
2024/01/14 04:58:45;;;;;;;43.83;16.97;;;;;;;0.80;100.00;101289.69;4951410;28;20408;-90
2024/01/14 05:01:10;;;;;;;43.70;17.07;;;;;;;0.78;100.00;101290.50;4936425;28;20528;-91
2024/01/14 05:03:35;;;;;;;44.17;17.07;;;;;;;0.74;100.00;101285.31;4950857;28;20031;-92
2024/01/14 05:06:01;;;;;;;45.23;17.13;;;;;;;0.73;100.00;101278.47;4950552;28;20325;-91
2024/01/14 05:08:26;;;;;;;42.30;16.73;;;;;;;0.71;100.00;101275.00;4951541;28;20035;-90
2024/01/14 05:10:51;;;;;;;43.47;16.90;;;;;;;0.69;100.00;101275.81;4933332;28;20039;-90
2024/01/14 05:13:17;;;;;;;44.77;18.00;;;;;;;0.69;100.00;101276.66;4940101;28;20023;-90
2024/01/14 05:15:42;;;;;;;40.33;16.37;;;;;;;0.67;100.00;101272.34;4952484;28;20062;-90
2024/01/14 05:18:07;;;;;;;39.80;16.77;;;;;;;0.66;100.00;101274.06;4952494;28;20743;-91
2024/01/14 05:20:33;;;;;;;39.60;15.33;;;;;;;0.67;100.00;101273.22;4949870;28;20062;-89
2024/01/14 05:22:58;;;;;;;43.13;16.30;;;;;;;0.67;100.00;101262.97;4954519;28;20082;-90
2024/01/14 05:25:23;;;;;;;40.77;16.10;;;;;;;0.66;100.00;101271.50;4950438;28;20393;-89
2024/01/14 05:27:49;;;;;;;39.93;15.83;;;;;;;0.65;100.00;101263.75;4952437;28;20062;-91
2024/01/14 05:30:14;;;;;;;34.23;14.90;;;;;;;0.63;100.00;101263.72;4934806;28;20077;-90
2024/01/14 05:32:40;;;;;;;37.30;15.07;;;;;;;0.63;100.00;101266.28;4948535;28;20027;-90
2024/01/14 05:35:05;;;;;;;33.37;14.00;;;;;;;0.63;100.00;101265.41;4951207;28;20027;-89
2024/01/14 05:37:31;;;;;;;34.77;13.23;;;;;;;0.63;100.00;101271.41;4953903;28;20428;-89
2024/01/14 05:39:57;;;;;;;32.93;13.23;;;;;;;0.60;100.00;101255.97;4953085;28;20362;-90
2024/01/14 05:42:22;;;;;;;32.63;13.67;;;;;;;0.60;100.00;101253.41;4952213;28;20088;-90
2024/01/14 05:44:47;;;;;;;30.33;13.10;;;;;;;0.60;100.00;101253.41;4964662;28;20100;-90
2024/01/14 05:47:13;;;;;;;29.70;12.37;;;;;;;0.59;100.00;101254.25;4968341;28;20101;-91
2024/01/14 05:49:38;;;;;;;32.10;12.87;;;;;;;0.60;100.00;101241.47;4968081;28;20532;-89
2024/01/14 05:52:04;;;;;;;29.63;12.67;;;;;;;0.60;100.00;101241.47;4975742;28;20549;-89
2024/01/14 05:54:29;;;;;;;35.43;13.67;;;;;;;0.60;100.00;101235.50;4980903;28;20039;-89
2024/01/14 05:56:55;;;;;;;31.30;13.17;;;;;;;0.59;100.00;101239.78;4968595;28;20379;-91
2024/01/14 05:59:20;;;;;;;32.77;13.20;;;;;;;0.58;100.00;101240.59;4968354;28;20101;-90
2024/01/14 06:01:46;;;;;;;32.13;13.07;;;;;;;0.58;100.00;101229.47;4953273;28;20420;-89
2024/01/14 06:04:12;;;;;;;31.40;12.73;;;;;;;0.54;100.00;101231.13;4969456;28;20058;-90
2024/01/14 06:06:37;;;;;;;37.83;13.73;;;;;;;0.53;100.00;101226.81;4954580;28;20050;-89
2024/01/14 06:09:02;;;;;;;31.30;13.03;;;;;;;0.55;100.00;101224.28;4968443;28;20026;-90
2024/01/14 06:11:28;;;;;;;33.27;14.03;;;;;;;0.52;100.00;101221.66;4968092;28;20030;-90
2024/01/14 06:13:53;;;;;;;34.43;13.53;;;;;;;0.51;100.00;101230.19;4967512;28;20097;-91
2024/01/14 06:16:19;;;;;;;34.07;13.80;;;;;;;0.50;100.00;101219.06;4967688;28;20130;-91
2024/01/14 06:18:45;;;;;;;34.03;13.83;;;;;;;0.50;100.00;101223.34;4968239;28;20023;-90
2024/01/14 06:21:10;;;;;;;32.07;12.60;;;;;;;0.47;100.00;101219.00;4954231;28;20019;-90
2024/01/14 06:23:35;;;;;;;34.50;14.37;;;;;;;0.47;100.00;101213.03;4966453;28;20110;-89
2024/01/14 06:26:01;;;;;;;36.57;14.27;;;;;;;0.49;100.00;101219.06;4965782;28;20030;-90
2024/01/14 06:28:26;;;;;;;35.50;13.93;;;;;;;0.46;100.00;101207.03;4967229;28;20129;-90
2024/01/14 06:30:52;;;;;;;35.87;14.40;;;;;;;0.46;100.00;101209.59;4952968;28;20022;-90
2024/01/14 06:33:18;;;;;;;39.90;14.87;;;;;;;0.46;100.00;101204.47;4968544;28;20026;-90
2024/01/14 06:35:43;;;;;;;31.77;12.80;;;;;;;0.45;100.00;101202.75;4953619;28;20510;-90
2024/01/14 06:38:08;;;;;;;37.47;13.97;;;;;;;0.46;100.00;101201.91;4967678;28;20113;-89
2024/01/14 06:40:34;;;;;;;31.33;13.00;;;;;;;0.44;100.00;101191.66;4967017;28;20123;-89
2024/01/14 06:43:00;;;;;;;34.37;13.47;;;;;;;0.46;100.00;101194.22;4968974;28;20019;-90
2024/01/14 06:45:25;;;;;;;32.90;13.60;;;;;;;0.44;100.00;101191.66;4970196;28;20023;-89
2024/01/14 06:47:50;;;;;;;35.10;13.87;;;;;;;0.46;100.00;101191.66;4970441;28;20508;-89
2024/01/14 06:50:16;;;;;;;36.10;13.70;;;;;;;0.44;100.00;101196.78;4970074;28;20027;-89
2024/01/14 06:52:42;;;;;;;34.27;14.17;;;;;;;0.44;100.00;101188.22;4954224;28;20101;-89
2024/01/14 06:55:08;;;;;;;32.33;12.17;;;;;;;0.45;100.00;101187.38;4968952;28;20034;-89
2024/01/14 06:57:33;;;;;;;31.67;13.10;;;;;;;0.48;100.00;101184.03;4956352;28;20022;-91
2024/01/14 07:00:00;;;;;;;36.97;13.57;;;;;;;0.45;100.00;101180.59;4970643;28;20027;-91
2024/01/14 07:02:26;;;;;;;33.10;13.07;;;;;;;0.48;100.00;101172.09;4966281;28;20026;-90
2024/01/14 07:04:52;;;;;;;37.67;14.07;;;;;;;0.49;100.00;101170.41;4966071;28;20029;-89
2024/01/14 07:07:17;;;;;;;36.77;14.73;;;;;;;0.48;100.00;101159.28;4950963;28;20110;-89
2024/01/14 07:09:42;;;;;;;33.17;13.50;;;;;;;0.46;100.00;101166.06;4968970;28;20030;-90
2024/01/14 07:12:08;;;;;;;34.53;13.70;;;;;;;0.48;100.00;101163.56;4969181;28;20098;-88
2024/01/14 07:14:34;;;;;;;39.00;14.37;;;;;;;0.45;100.00;101164.34;4969125;28;20145;-90
2024/01/14 07:16:59;;;;;;;36.23;13.13;;;;;;;0.45;100.00;101160.09;4952333;28;20704;-89
2024/01/14 07:19:24;;;;;;;36.17;12.50;;;;;;;0.45;100.00;101169.47;4968252;28;20026;-91
2024/01/14 07:21:50;;;;;;;31.83;12.73;;;;;;;0.45;100.00;101161.78;4969690;28;20038;-90
2024/01/14 07:24:15;;;;;;;30.43;12.30;;;;;;;0.46;100.00;101173.75;4969751;28;20030;-88
2024/01/14 07:26:41;;;;;;;33.67;13.30;;;;;;;0.45;100.00;101166.91;4951137;28;20030;-89
2024/01/14 07:29:06;;;;;;;35.20;13.27;;;;;;;0.45;100.00;101170.34;4969118;28;20035;-89
2024/01/14 07:31:32;;;;;;;32.57;13.10;;;;;;;0.48;100.00;101173.81;4968495;28;20062;-90
2024/01/14 07:33:57;;;;;;;33.40;12.90;;;;;;;0.50;100.00;101179.81;4952893;28;20117;-89
2024/01/14 07:36:23;;;;;;;33.33;13.17;;;;;;;0.48;100.00;101172.09;4974287;28;20403;-89
2024/01/14 07:38:50;;;;;;;32.13;12.00;;;;;;;0.49;100.00;101175.53;4974160;28;20042;-90
2024/01/14 07:41:16;;;;;;;31.90;12.30;;;;;;;0.51;100.00;101173.88;4974193;28;20035;-90
2024/01/14 07:43:42;;;;;;;31.30;12.63;;;;;;;0.48;100.00;101168.69;4973028;28;20055;-90
2024/01/14 07:46:08;;;;;;;29.53;12.57;;;;;;;0.49;100.00;101176.38;4971108;28;20106;-90
2024/01/14 07:48:34;;;;;;;32.37;12.30;;;;;;;0.49;100.00;101175.53;4973603;28;20126;-89
2024/01/14 07:51:00;;;;;;;33.77;13.37;;;;;;;0.48;100.00;101174.66;4974506;28;20038;-88
2024/01/14 07:53:25;;;;;;;34.27;13.57;;;;;;;0.47;100.00;101166.97;4973254;28;20191;-89
2024/01/14 07:55:51;;;;;;;35.73;13.23;;;;;;;0.45;100.00;101170.34;4971196;28;20109;-89
2024/01/14 07:58:17;;;;;;;36.73;13.70;;;;;;;0.45;100.00;101162.66;4969403;28;20031;-89
2024/01/14 08:00:43;;;;;;;32.70;12.93;;;;;;;0.44;100.00;101168.63;4971156;28;20037;-90
2024/01/14 08:03:09;;;;;;;36.30;13.37;;;;;;;0.44;100.00;101173.72;4965466;28;20039;-91
2024/01/14 08:05:35;;;;;;;38.10;13.67;;;;;;;0.45;100.00;101165.22;4965952;28;20050;-88
2024/01/14 08:08:01;;;;;;;35.20;12.83;;;;;;;0.44;100.00;101158.38;4951650;28;20031;-89
2024/01/14 08:10:27;;;;;;;36.13;13.40;;;;;;;0.45;100.00;101174.59;4973974;28;20039;-89
2024/01/14 08:12:52;;;;;;;35.97;12.83;;;;;;;0.45;100.00;101175.47;4953900;28;20035;-89
2024/01/14 08:15:18;;;;;;;32.03;12.33;;;;;;;0.46;100.00;101171.19;4967417;28;20057;-88
2024/01/14 08:17:43;;;;;;;31.27;12.13;;;;;;;0.47;100.00;101172.91;4952742;28;20122;-89
2024/01/14 08:20:10;;;;;;;29.90;11.93;;;;;;;0.48;100.00;101172.09;4970279;28;20026;-89
2024/01/14 08:22:42;;;;;;;30.33;11.43;;;;;;;0.50;100.00;101174.69;4965567;28;20073;-88
2024/01/14 08:25:08;;;;;;;32.13;12.90;;;;;;;0.52;100.00;101167.88;4966799;28;20034;-88
2024/01/14 08:27:34;;;;;;;31.40;12.37;;;;;;;0.54;100.00;101169.66;4968451;28;20023;-91
2024/01/14 08:29:59;;;;;;;33.33;13.60;;;;;;;0.53;100.00;101169.63;4965508;28;21567;-89
2024/01/14 08:32:25;;;;;;;33.33;12.80;;;;;;;0.52;100.00;101161.09;4969958;28;20031;-89
2024/01/14 08:34:50;;;;;;;32.63;12.67;;;;;;;0.51;100.00;101163.63;4973255;28;20031;-89
2024/01/14 08:37:16;;;;;;;31.03;12.23;;;;;;;0.55;100.00;101165.41;4955280;28;20023;-88
2024/01/14 08:39:41;;;;;;;35.07;13.33;;;;;;;0.56;100.00;101162.00;4946325;28;20030;-90
2024/01/14 08:42:07;;;;;;;36.27;14.03;;;;;;;0.56;100.00;101159.44;4967024;28;20041;-90
2024/01/14 08:44:32;;;;;;;34.63;13.10;;;;;;;0.56;100.00;101156.91;4954046;28;20047;-90
2024/01/14 08:46:59;;;;;;;32.10;12.67;;;;;;;0.57;100.00;101153.50;4938119;28;20034;-90
2024/01/14 08:49:26;;;;;;;34.33;13.47;;;;;;;0.56;100.00;101144.09;4938694;28;20122;-90
2024/01/14 08:51:51;;;;;;;33.77;12.93;;;;;;;0.56;100.00;101147.53;4937907;28;20034;-93
2024/01/14 08:54:17;;;;;;;32.80;12.60;;;;;;;0.57;100.00;101138.13;4939373;29;20023;-91
2024/01/14 08:56:43;;;;;;;29.67;12.20;;;;;;;0.58;100.00;101135.63;4939509;29;20093;-91
2024/01/14 08:59:08;;;;;;;31.87;13.20;;;;;;;0.59;100.00;101137.34;4948919;28;20031;-91
2024/01/14 09:01:34;;;;;;;33.43;13.00;;;;;;;0.62;100.00;101140.78;4921230;29;20060;-92
2024/01/14 09:03:59;;;;;;;29.83;12.90;;;;;;;0.61;100.00;101139.94;4946733;28;20035;-91
2024/01/14 09:06:24;;;;;;;32.83;12.60;;;;;;;0.64;100.00;101142.56;4954369;28;20045;-92
2024/01/14 09:08:50;;;;;;;33.33;13.50;;;;;;;0.64;100.00;101140.00;4922415;29;20118;-92
2024/01/14 09:11:15;;;;;;;37.07;13.30;;;;;;;0.63;100.00;101142.50;4945643;28;20482;-92
2024/01/14 09:13:40;;;;;;;31.83;13.70;;;;;;;0.63;100.00;101140.84;4943040;28;20453;-90
2024/01/14 09:16:07;;;;;;;34.97;13.07;;;;;;;0.61;100.00;101139.94;4955700;28;20525;-91
2024/01/14 09:18:32;;;;;;;39.47;13.67;;;;;;;0.60;100.00;101141.63;4947735;28;20114;-93
2024/01/14 09:20:58;;;;;;;33.70;13.93;;;;;;;0.60;100.00;101138.22;4948008;29;20168;-91
2024/01/14 09:23:23;;;;;;;34.47;13.30;;;;;;;0.62;100.00;101135.66;4928841;29;20685;-90
2024/01/14 09:25:48;;;;;;;30.10;12.47;;;;;;;0.65;100.00;101135.72;4935279;29;20031;-89
2024/01/14 09:28:14;;;;;;;31.67;12.43;;;;;;;0.64;100.00;101136.56;4952124;28;20031;-92
2024/01/14 09:30:39;;;;;;;34.87;13.07;;;;;;;0.66;100.00;101133.22;4951819;28;20031;-92
2024/01/14 09:33:04;;;;;;;33.30;14.00;;;;;;;0.65;100.00;101126.38;4936744;29;20433;-90
2024/01/14 09:35:30;;;;;;;34.47;13.47;;;;;;;0.64;100.00;101132.31;4935408;28;20046;-90
2024/01/14 09:37:55;;;;;;;34.30;12.97;;;;;;;0.65;100.00;101126.38;4935282;28;20110;-91
2024/01/14 09:40:21;;;;;;;33.53;13.60;;;;;;;0.66;100.00;101120.41;4955453;28;20031;-91
2024/01/14 09:42:50;;;;;;;35.73;13.83;;;;;;;0.66;100.00;101122.97;4955145;28;20063;-91
2024/01/14 09:45:16;;;;;;;34.83;12.67;;;;;;;0.66;100.00;101115.28;4969634;28;20089;-91
2024/01/14 09:47:42;;;;;;;30.00;12.03;;;;;;;0.70;100.00;101114.50;4971121;28;20392;-91
2024/01/14 09:50:09;;;;;;;32.43;12.77;;;;;;;0.72;100.00;101106.88;4954244;28;20037;-90
2024/01/14 09:52:39;;;;;;;34.17;13.03;;;;;;;0.72;100.00;101112.84;4972725;28;20034;-92
2024/01/14 09:55:05;;;;;;;34.93;13.03;;;;;;;0.74;100.00;101110.31;4972298;28;20030;-92
2024/01/14 09:57:33;;;;;;;34.20;13.33;;;;;;;0.77;100.00;101109.50;4970671;28;20022;-91
2024/01/14 10:00:04;;;;;;;34.73;12.73;;;;;;;0.78;100.00;101106.97;4969725;28;20464;-91
2024/01/14 10:02:34;;;;;;;32.93;13.57;;;;;;;0.80;100.00;101101.88;4970968;28;20030;-88
2024/01/14 10:04:59;;;;;;;33.30;12.93;;;;;;;0.80;100.00;101091.63;4970356;28;20038;-91
2024/01/14 10:07:26;;;;;;;33.33;12.50;;;;;;;0.79;100.00;101100.16;4969295;28;20041;-90
2024/01/14 10:09:52;;;;;;;32.47;13.37;;;;;;;0.80;100.00;101089.06;4967911;28;20449;-87
2024/01/14 10:12:18;;;;;;;36.53;13.33;;;;;;;0.83;100.00;101094.25;4969468;28;20483;-87
2024/01/14 10:14:45;;;;;;;35.30;13.53;;;;;;;0.84;100.00;101081.47;4969076;28;20035;-87
2024/01/14 10:17:14;;;;;;;40.23;15.00;;;;;;;0.84;100.00;101076.34;4969507;28;20039;-88
2024/01/14 10:19:43;;;;;;;38.60;14.67;;;;;;;0.86;100.00;101071.25;4951534;28;20031;-94
2024/01/14 10:22:08;;;;;;;38.90;14.17;;;;;;;0.89;100.00;101068.75;4954192;28;20031;-90
2024/01/14 10:24:33;;;;;;;39.00;14.90;;;;;;;0.89;100.00;101063.63;4969789;28;20085;-89
2024/01/14 10:26:59;;;;;;;37.63;14.37;;;;;;;0.91;100.00;101067.06;4971962;28;20617;-90
2024/01/14 10:29:24;;;;;;;38.63;14.27;;;;;;;0.91;100.00;101061.94;4974491;28;20042;-92
2024/01/14 10:31:50;;;;;;;38.13;15.03;;;;;;;0.94;100.00;101051.75;4954790;28;20038;-89
2024/01/14 10:34:19;;;;;;;36.27;13.90;;;;;;;0.96;100.00;101055.22;4953781;28;20030;-89
2024/01/14 10:36:46;;;;;;;38.80;14.73;;;;;;;0.98;100.00;101062.91;4971260;28;20022;-91
2024/01/14 10:39:12;;;;;;;34.53;13.57;;;;;;;0.98;100.00;101053.53;4970453;28;20027;-90
2024/01/14 10:41:38;;;;;;;34.17;13.33;;;;;;;1.01;100.00;101052.72;4969453;28;20160;-90
2024/01/14 10:44:04;;;;;;;32.90;13.53;;;;;;;1.05;100.00;101044.25;4968194;28;20066;-88
2024/01/14 10:46:30;;;;;;;33.37;13.77;;;;;;;1.09;100.00;101042.59;4967747;28;20087;-89
2024/01/14 10:49:07;;;;;;;32.37;13.13;;;;;;;1.10;100.00;101031.53;4951015;28;20090;-88
2024/01/14 10:51:42;;;;;;;32.40;13.10;;;;;;;1.06;100.00;101036.59;4963829;28;20031;-88
2024/01/14 10:54:31;;;;;;;29.73;12.07;;;;;;;1.09;100.00;101027.22;4965512;28;20150;-88
2024/01/14 10:57:15;;;;;;;33.87;12.03;;;;;;;1.09;100.00;101024.66;4966689;28;20038;-91
2024/01/14 10:59:42;;;;;;;29.90;11.77;;;;;;;1.09;100.00;101019.53;4967455;28;20630;-89
2024/01/14 11:02:15;;;;;;;29.83;13.00;;;;;;;1.11;100.00;101017.88;4967091;28;20158;-88